createdAt,value
2022-08-26T00:00:11.268Z,24.00
2022-08-26T00:02:40.549Z,24.00
2022-08-26T00:05:09.952Z,24.00
2022-08-26T00:07:38.092Z,24.00
2022-08-26T00:10:07.356Z,24.00
2022-08-26T00:12:37.275Z,24.00
2022-08-26T00:15:10.527Z,24.10
2022-08-26T00:17:40.376Z,24.10
2022-08-26T00:20:10.806Z,24.10
2022-08-26T00:22:39.152Z,24.10
2022-08-26T00:25:09.291Z,24.10
2022-08-26T00:27:37.695Z,24.10
2022-08-26T00:30:12.042Z,24.10
2022-08-26T00:32:40.308Z,24.10
2022-08-26T00:35:13.195Z,24.10
2022-08-26T00:37:42.631Z,24.10
2022-08-26T00:40:15.038Z,24.00
2022-08-26T00:42:46.145Z,24.00
2022-08-26T00:45:16.024Z,24.00
2022-08-26T00:47:47.832Z,24.00
2022-08-26T00:50:20.358Z,24.00
2022-08-26T00:52:49.951Z,24.00
2022-08-26T00:55:22.346Z,24.00
2022-08-26T00:57:52.993Z,23.90
2022-08-26T01:00:25.424Z,23.90
2022-08-26T01:02:55.605Z,23.90
2022-08-26T01:05:24.408Z,23.80
2022-08-26T01:07:52.765Z,23.80
2022-08-26T01:10:23.519Z,23.80
2022-08-26T01:12:57.624Z,23.80
2022-08-26T01:15:33.377Z,23.80
2022-08-26T01:18:02.127Z,23.80
2022-08-26T01:20:37.479Z,23.80
2022-08-26T01:23:09.031Z,23.80
2022-08-26T01:25:42.982Z,23.80
2022-08-26T01:28:15.552Z,23.80
2022-08-26T01:30:47.645Z,23.80
2022-08-26T01:33:18.738Z,23.80
2022-08-26T01:35:47.232Z,23.80
2022-08-26T01:38:19.082Z,23.80
2022-08-26T01:40:47.712Z,23.80
2022-08-26T01:43:24.173Z,23.80
2022-08-26T01:45:54.980Z,23.70
2022-08-26T01:48:28.576Z,23.60
2022-08-26T01:50:57.576Z,23.60
2022-08-26T01:53:27.943Z,23.60
2022-08-26T01:56:00.065Z,23.50
2022-08-26T01:58:31.687Z,23.50
2022-08-26T02:01:02.539Z,23.50
2022-08-26T02:03:31.569Z,23.50
2022-08-26T02:06:05.251Z,23.40
2022-08-26T02:08:42.631Z,23.50
2022-08-26T02:11:11.411Z,23.50
2022-08-26T02:13:44.679Z,23.50
2022-08-26T02:16:13.906Z,23.50
2022-08-26T02:18:44.814Z,23.60
2022-08-26T02:21:15.934Z,23.60
2022-08-26T02:23:46.386Z,23.60
2022-08-26T02:26:18.060Z,23.60
2022-08-26T02:28:52.301Z,23.60
2022-08-26T02:31:20.627Z,23.60
2022-08-26T02:33:49.347Z,23.60
2022-08-26T02:36:21.564Z,23.60
2022-08-26T02:38:51.087Z,23.60
2022-08-26T02:41:20.299Z,23.60
2022-08-26T02:43:51.284Z,23.60
2022-08-26T02:46:27.938Z,23.50
2022-08-26T02:48:58.434Z,23.50
2022-08-26T02:51:26.703Z,23.50
2022-08-26T02:53:56.979Z,23.50
2022-08-26T02:56:25.328Z,23.50
2022-08-26T02:58:53.446Z,23.50
2022-08-26T03:01:23.878Z,23.50
2022-08-26T03:03:52.099Z,23.50
2022-08-26T03:06:20.384Z,23.40
2022-08-26T03:08:49.012Z,23.40
2022-08-26T03:11:19.078Z,23.40
2022-08-26T03:13:47.421Z,23.40
2022-08-26T03:16:16.057Z,23.40
2022-08-26T03:18:44.363Z,23.40
2022-08-26T03:21:21.267Z,23.40
2022-08-26T03:23:49.747Z,23.40
2022-08-26T03:26:20.371Z,23.40
2022-08-26T03:29:06.732Z,23.40
2022-08-26T03:31:34.979Z,23.40
2022-08-26T03:34:03.616Z,23.40
2022-08-26T03:36:32.031Z,23.50
2022-08-26T03:39:03.557Z,23.50
2022-08-26T03:41:34.533Z,23.50
2022-08-26T03:44:02.652Z,23.40
2022-08-26T03:46:33.503Z,23.40
2022-08-26T03:49:02.985Z,23.40
2022-08-26T03:51:31.847Z,23.40
2022-08-26T03:54:03.063Z,23.40
2022-08-26T03:56:33.456Z,23.40
2022-08-26T03:59:02.382Z,23.40
2022-08-26T04:01:31.354Z,23.30
2022-08-26T04:04:01.339Z,23.30
2022-08-26T04:06:31.892Z,23.30
2022-08-26T04:09:02.113Z,23.30
2022-08-26T04:11:35.912Z,23.30
2022-08-26T04:14:08.884Z,23.30
2022-08-26T04:16:37.123Z,23.30
2022-08-26T04:19:05.362Z,23.20
2022-08-26T04:21:33.803Z,23.20
2022-08-26T04:24:03.499Z,23.20
2022-08-26T04:26:39.485Z,23.20
2022-08-26T04:29:14.893Z,23.20
2022-08-26T04:31:43.341Z,23.20
2022-08-26T04:34:11.745Z,23.20
2022-08-26T04:36:43.151Z,23.20
2022-08-26T04:39:16.544Z,23.30
2022-08-26T04:41:46.240Z,23.30
2022-08-26T04:44:15.235Z,23.30
2022-08-26T04:46:43.907Z,23.30
2022-08-26T04:49:12.654Z,23.30
2022-08-26T04:51:41.241Z,23.40
2022-08-26T04:54:12.551Z,23.40
2022-08-26T04:56:43.496Z,23.40
2022-08-26T04:59:18.214Z,23.50
2022-08-26T05:01:48.673Z,23.50
2022-08-26T05:04:19.162Z,23.60
2022-08-26T05:06:47.612Z,23.60
2022-08-26T05:09:18.445Z,23.70
2022-08-26T05:11:48.615Z,23.70
2022-08-26T05:14:23.266Z,23.80
2022-08-26T05:16:51.742Z,23.80
2022-08-26T05:19:19.928Z,23.90
2022-08-26T05:21:49.720Z,24.00
2022-08-26T05:24:18.993Z,24.00
2022-08-26T05:26:48.274Z,24.10
2022-08-26T05:29:16.770Z,24.10
2022-08-26T05:31:46.626Z,24.20
2022-08-26T05:34:15.702Z,24.20
2022-08-26T05:36:43.834Z,24.30
2022-08-26T05:39:12.119Z,24.30
2022-08-26T05:41:42.920Z,24.30
2022-08-26T05:44:21.003Z,24.40
2022-08-26T05:46:53.580Z,24.50
2022-08-26T05:49:22.480Z,24.50
2022-08-26T05:51:54.637Z,24.60
2022-08-26T05:54:22.836Z,24.70
2022-08-26T05:56:51.939Z,24.80
2022-08-26T05:59:24.337Z,24.80
2022-08-26T06:01:55.182Z,24.90
2022-08-26T06:04:26.993Z,24.90
2022-08-26T06:06:56.698Z,25.00
2022-08-26T06:09:25.510Z,25.00
2022-08-26T06:11:53.702Z,25.00
2022-08-26T06:14:21.763Z,25.00
2022-08-26T06:16:50.069Z,25.00
2022-08-26T06:19:20.132Z,25.00
2022-08-26T06:21:54.642Z,25.10
2022-08-26T06:24:40.588Z,25.10
2022-08-26T06:27:11.439Z,25.10
2022-08-26T06:29:41.802Z,25.10
2022-08-26T06:32:09.918Z,25.20
2022-08-26T06:34:39.825Z,25.20
2022-08-26T06:37:08.850Z,25.20
2022-08-26T06:39:41.091Z,25.20
2022-08-26T06:42:11.845Z,25.20
2022-08-26T06:44:41.482Z,25.30
2022-08-26T06:47:13.165Z,25.30
2022-08-26T06:49:42.764Z,25.30
2022-08-26T06:52:12.515Z,25.40
2022-08-26T06:54:43.212Z,25.40
2022-08-26T06:57:13.121Z,25.40
2022-08-26T06:59:42.565Z,25.30
2022-08-26T07:02:10.747Z,25.40
2022-08-26T07:04:44.513Z,25.40
2022-08-26T07:07:16.732Z,25.50
2022-08-26T07:09:46.036Z,25.60
2022-08-26T07:12:14.421Z,25.70
2022-08-26T07:14:43.757Z,25.70
2022-08-26T07:17:15.859Z,25.80
2022-08-26T07:19:46.039Z,25.90
2022-08-26T07:22:14.256Z,26.00
2022-08-26T07:24:42.747Z,26.00
2022-08-26T07:27:16.794Z,26.00
2022-08-26T07:29:45.357Z,26.10
2022-08-26T07:32:15.762Z,26.20
2022-08-26T07:34:45.945Z,26.30
2022-08-26T07:37:14.163Z,26.30
2022-08-26T07:39:43.351Z,26.40
2022-08-26T07:42:14.588Z,26.40
2022-08-26T07:44:44.244Z,26.50
2022-08-26T07:47:25.587Z,26.60
2022-08-26T07:49:58.046Z,26.60
2022-08-26T07:52:27.954Z,26.70
2022-08-26T07:54:57.012Z,26.70
2022-08-26T07:57:26.521Z,26.80
2022-08-26T07:59:56.056Z,26.80
2022-08-26T08:02:26.672Z,26.90
2022-08-26T08:04:58.068Z,27.00
2022-08-26T08:07:38.563Z,27.00
2022-08-26T08:10:15.879Z,27.10
2022-08-26T08:12:45.012Z,27.10
2022-08-26T08:15:14.631Z,27.10
2022-08-26T08:17:44.029Z,27.10
2022-08-26T08:20:15.651Z,27.10
2022-08-26T08:22:44.050Z,27.10
2022-08-26T08:25:13.719Z,27.20
2022-08-26T08:27:43.473Z,27.30
2022-08-26T08:30:13.637Z,27.30
2022-08-26T08:32:43.647Z,27.30
2022-08-26T08:35:15.112Z,27.30
2022-08-26T08:37:44.775Z,27.40
2022-08-26T08:40:18.338Z,27.40
2022-08-26T08:45:25.805Z,27.50
2022-08-26T08:47:57.780Z,27.70
2022-08-26T08:50:31.136Z,27.70
2022-08-26T08:53:15.920Z,27.80
2022-08-26T08:55:57.824Z,27.70
2022-08-26T08:58:36.360Z,27.60
2022-08-26T09:01:10.203Z,27.70
2022-08-26T09:03:56.736Z,27.80
2022-08-26T09:06:27.664Z,27.90
2022-08-26T09:08:58.103Z,27.90
2022-08-26T09:11:26.286Z,28.00
2022-08-26T09:13:57.069Z,28.10
2022-08-26T09:16:38.298Z,28.10
2022-08-26T09:19:18.955Z,28.30
2022-08-26T09:21:56.889Z,28.40
2022-08-26T09:24:28.725Z,28.50
2022-08-26T09:26:59.017Z,28.60
2022-08-26T09:29:29.774Z,28.80
2022-08-26T09:32:16.324Z,29.00
2022-08-26T09:34:56.478Z,29.20
2022-08-26T09:37:38.350Z,29.40
2022-08-26T09:40:22.554Z,29.60
2022-08-26T09:43:15.898Z,29.70
2022-08-26T09:45:50.819Z,29.80
2022-08-26T09:48:30.093Z,30.00
2022-08-26T09:51:01.303Z,30.10
2022-08-26T09:53:34.380Z,30.20
2022-08-26T09:56:18.202Z,30.30
2022-08-26T09:58:48.716Z,30.30
2022-08-26T10:01:27.346Z,30.30
2022-08-26T10:04:06.917Z,30.40
2022-08-26T10:06:39.935Z,30.40
2022-08-26T10:09:14.239Z,30.50
2022-08-26T10:11:45.612Z,30.50
2022-08-26T10:14:20.647Z,30.50
2022-08-26T10:16:51.918Z,30.50
2022-08-26T10:19:29.191Z,30.60
2022-08-26T10:22:18.903Z,30.50
2022-08-26T10:24:54.908Z,30.50
2022-08-26T10:27:31.566Z,30.50
2022-08-26T10:30:06.507Z,30.50
2022-08-26T10:32:41.392Z,30.50
2022-08-26T10:35:12.859Z,30.50
2022-08-26T10:37:45.067Z,30.60
2022-08-26T10:40:19.665Z,30.70
2022-08-26T10:42:54.283Z,30.80
2022-08-26T10:45:27.360Z,30.90
2022-08-26T10:48:02.247Z,30.90
2022-08-26T10:50:35.457Z,30.90
2022-08-26T10:53:12.081Z,30.90
2022-08-26T10:55:49.141Z,30.90
2022-08-26T10:58:32.552Z,31.00
2022-08-26T11:01:28.568Z,31.20
2022-08-26T11:04:04.589Z,31.30
2022-08-26T11:06:32.864Z,31.60
2022-08-26T11:09:02.823Z,31.70
2022-08-26T11:11:48.229Z,31.90
2022-08-26T11:14:53.690Z,31.90
2022-08-26T11:17:57.840Z,31.80
2022-08-26T11:20:41.856Z,31.50
2022-08-26T11:23:50.563Z,31.30
2022-08-26T11:26:35.944Z,31.10
2022-08-26T11:29:13.659Z,31.00
2022-08-26T11:31:56.999Z,30.90
2022-08-26T11:34:52.548Z,30.90
2022-08-26T11:37:22.936Z,30.90
2022-08-26T11:39:57.020Z,30.90
2022-08-26T11:42:34.306Z,31.00
2022-08-26T11:45:14.503Z,31.10
2022-08-26T11:47:42.787Z,31.10
2022-08-26T11:50:15.280Z,31.20
2022-08-26T11:52:52.960Z,31.20
2022-08-26T11:55:23.290Z,31.20
2022-08-26T11:57:54.332Z,31.30
2022-08-26T12:00:27.319Z,31.20
2022-08-26T12:03:06.231Z,31.20
2022-08-26T12:05:39.569Z,31.10
2022-08-26T12:08:10.237Z,31.00
2022-08-26T12:10:40.264Z,30.70
2022-08-26T12:13:21.262Z,30.20
2022-08-26T12:15:56.301Z,29.90
2022-08-26T12:18:29.610Z,29.30
2022-08-26T12:21:00.580Z,28.80
2022-08-26T12:23:40.192Z,28.50
2022-08-26T12:26:12.524Z,28.20
2022-08-26T12:28:46.003Z,27.90
2022-08-26T12:31:23.990Z,27.70
2022-08-26T12:33:54.136Z,27.50
2022-08-26T12:36:27.543Z,27.30
2022-08-26T12:38:58.471Z,27.10
2022-08-26T12:41:44.192Z,27.00
2022-08-26T12:44:37.984Z,26.80
2022-08-26T12:47:12.007Z,26.70
2022-08-26T12:49:42.393Z,26.50
2022-08-26T12:52:30.050Z,26.30
2022-08-26T12:55:00.571Z,26.20
2022-08-26T12:57:31.630Z,26.00
2022-08-26T13:00:34.614Z,25.90
2022-08-26T13:03:04.834Z,25.80
2022-08-26T13:05:35.553Z,25.60
2022-08-26T13:08:12.158Z,25.60
2022-08-26T13:10:42.421Z,25.50
2022-08-26T13:13:10.839Z,25.40
2022-08-26T13:15:39.322Z,25.30
2022-08-26T13:18:08.951Z,25.30
2022-08-26T13:20:44.159Z,25.20
2022-08-26T13:23:12.698Z,25.20
2022-08-26T13:25:41.309Z,25.10
2022-08-26T13:28:09.897Z,24.90
2022-08-26T13:30:38.229Z,24.70
2022-08-26T13:33:09.445Z,24.40
2022-08-26T13:35:40.466Z,24.20
2022-08-26T13:38:14.694Z,23.90
2022-08-26T13:41:02.620Z,23.70
2022-08-26T13:43:31.831Z,23.50
2022-08-26T13:46:00.796Z,23.40
2022-08-26T13:48:31.540Z,23.30
2022-08-26T13:51:00.137Z,23.20
2022-08-26T13:53:29.509Z,23.10
2022-08-26T13:55:58.069Z,23.00
2022-08-26T13:58:26.406Z,23.00
2022-08-26T14:00:55.508Z,22.90
2022-08-26T14:03:24.733Z,22.80
2022-08-26T14:05:55.040Z,22.70
2022-08-26T14:08:23.899Z,22.70
2022-08-26T14:10:52.177Z,22.60
2022-08-26T14:13:20.683Z,22.60
2022-08-26T14:15:48.869Z,22.60
2022-08-26T14:18:19.624Z,22.60
2022-08-26T14:20:50.599Z,22.60
2022-08-26T14:23:20.273Z,22.60
2022-08-26T14:25:48.368Z,22.60
2022-08-26T14:28:16.644Z,22.70
2022-08-26T14:30:48.659Z,22.70
2022-08-26T14:33:17.485Z,22.70
2022-08-26T14:35:49.033Z,22.70
2022-08-26T14:38:17.712Z,22.80
2022-08-26T14:40:47.271Z,22.90
2022-08-26T14:43:16.343Z,22.90
2022-08-26T14:45:46.209Z,22.90
2022-08-26T14:48:14.639Z,22.80
2022-08-26T14:50:42.763Z,22.70
2022-08-26T14:53:28.513Z,22.70
2022-08-26T14:55:58.965Z,22.70
2022-08-26T14:58:30.961Z,22.70
2022-08-26T15:01:04.273Z,22.70
2022-08-26T15:03:32.655Z,22.70
2022-08-26T15:06:00.816Z,22.80
2022-08-26T15:08:28.946Z,22.80
2022-08-26T15:10:58.527Z,22.80
2022-08-26T15:13:26.682Z,22.90
2022-08-26T15:15:54.793Z,22.80
2022-08-26T15:18:23.507Z,22.80
2022-08-26T15:20:51.622Z,22.70
2022-08-26T15:23:19.799Z,22.60
2022-08-26T15:25:49.539Z,22.60
2022-08-26T15:28:19.151Z,22.60
2022-08-26T15:30:47.280Z,22.70
2022-08-26T15:33:15.656Z,22.60
2022-08-26T15:35:44.068Z,22.60
2022-08-26T15:38:12.957Z,22.60
2022-08-26T15:40:41.209Z,22.60
2022-08-26T15:43:25.779Z,22.70
2022-08-26T15:45:58.172Z,22.70
2022-08-26T15:48:26.860Z,22.70
2022-08-26T15:50:59.966Z,22.70
2022-08-26T15:53:29.625Z,22.70
2022-08-26T15:55:58.712Z,22.60
2022-08-26T15:58:28.259Z,22.50
2022-08-26T16:00:57.873Z,22.40
2022-08-26T16:03:26.071Z,22.30
2022-08-26T16:05:54.560Z,22.20
2022-08-26T16:08:22.854Z,22.20
2022-08-26T16:10:51.609Z,22.20
2022-08-26T16:13:21.038Z,22.20
2022-08-26T16:15:49.428Z,22.30
2022-08-26T16:18:20.339Z,22.30
2022-08-26T16:21:12.807Z,22.20
2022-08-26T16:23:45.085Z,22.20
2022-08-26T16:26:16.021Z,22.20
2022-08-26T16:28:44.519Z,22.20
2022-08-26T16:31:13.625Z,22.30
2022-08-26T16:33:43.275Z,22.30
2022-08-26T16:36:12.551Z,22.20
2022-08-26T16:38:41.570Z,22.20
2022-08-26T16:41:10.403Z,22.20
2022-08-26T16:43:38.620Z,22.10
2022-08-26T16:46:08.132Z,22.10
2022-08-26T16:48:36.508Z,22.10
2022-08-26T16:51:06.315Z,22.10
2022-08-26T16:53:34.721Z,22.10
2022-08-26T16:56:02.840Z,22.00
2022-08-26T16:58:31.350Z,21.90
2022-08-26T17:00:59.859Z,21.90
2022-08-26T17:03:28.408Z,21.90
2022-08-26T17:05:56.743Z,21.90
2022-08-26T17:08:28.473Z,22.00
2022-08-26T17:10:57.327Z,22.10
2022-08-26T17:13:34.806Z,22.20
2022-08-26T17:16:04.969Z,22.20
2022-08-26T17:18:33.913Z,22.30
2022-08-26T17:21:03.435Z,22.30
2022-08-26T17:23:33.550Z,22.40
2022-08-26T17:26:01.681Z,22.40
2022-08-26T17:28:29.923Z,22.40
2022-08-26T17:30:58.419Z,22.40
2022-08-26T17:33:27.485Z,22.40
2022-08-26T17:35:57.288Z,22.40
2022-08-26T17:38:25.929Z,22.40
2022-08-26T17:40:55.990Z,22.50
2022-08-26T17:43:24.285Z,22.50
2022-08-26T17:45:52.679Z,22.50
2022-08-26T17:48:21.185Z,22.50
2022-08-26T17:50:49.338Z,22.40
2022-08-26T17:53:18.867Z,22.50
2022-08-26T17:55:47.568Z,22.50
2022-08-26T17:58:22.722Z,22.50
2022-08-26T18:00:54.297Z,22.50
2022-08-26T18:03:22.491Z,22.50
2022-08-26T18:05:52.753Z,22.50
2022-08-26T18:08:21.466Z,22.40
2022-08-26T18:10:49.682Z,22.40
2022-08-26T18:13:19.978Z,22.30
2022-08-26T18:15:48.809Z,22.30
2022-08-26T18:18:17.226Z,22.30
2022-08-26T18:20:46.348Z,22.20
2022-08-26T18:23:20.088Z,22.20
2022-08-26T18:25:48.287Z,22.20
2022-08-26T18:28:19.498Z,22.20
2022-08-26T18:30:47.820Z,22.20
2022-08-26T18:33:16.103Z,22.10
2022-08-26T18:35:45.923Z,22.10
2022-08-26T18:38:15.427Z,22.10
2022-08-26T18:40:46.435Z,22.10
2022-08-26T18:43:14.737Z,22.10
2022-08-26T18:45:44.565Z,22.10
2022-08-26T18:48:13.044Z,22.10
2022-08-26T18:50:45.800Z,22.10
2022-08-26T18:53:15.747Z,22.10
2022-08-26T18:55:43.882Z,22.10
2022-08-26T18:58:12.151Z,22.00
2022-08-26T19:00:40.382Z,22.00
2022-08-26T19:03:18.360Z,22.00
2022-08-26T19:05:47.800Z,22.00
2022-08-26T19:08:16.082Z,22.00
2022-08-26T19:10:44.258Z,22.00
2022-08-26T19:13:13.631Z,22.00
2022-08-26T19:15:45.877Z,21.90
2022-08-26T19:18:16.584Z,22.00
2022-08-26T19:20:46.741Z,22.00
2022-08-26T19:23:30.963Z,22.00
2022-08-26T19:26:00.174Z,22.00
2022-08-26T19:28:28.324Z,22.00
2022-08-26T19:30:56.561Z,22.00
2022-08-26T19:33:26.141Z,22.00
2022-08-26T19:35:54.391Z,22.00
2022-08-26T19:38:23.729Z,21.90
2022-08-26T19:40:52.022Z,22.00
2022-08-26T19:43:20.193Z,22.00
2022-08-26T19:45:50.885Z,22.00
2022-08-26T19:48:19.410Z,22.00
2022-08-26T19:50:49.595Z,22.00
2022-08-26T19:53:17.849Z,22.00
2022-08-26T19:55:45.964Z,22.00
2022-08-26T19:58:14.591Z,22.00
2022-08-26T20:00:42.947Z,22.00
2022-08-26T20:03:16.120Z,22.00
2022-08-26T20:05:44.903Z,22.00
2022-08-26T20:08:22.524Z,22.00
2022-08-26T20:10:51.736Z,22.10
2022-08-26T20:13:21.424Z,22.10
2022-08-26T20:15:49.834Z,22.10
2022-08-26T20:18:44.009Z,22.10
2022-08-26T20:21:27.629Z,22.10
2022-08-26T20:24:00.582Z,22.10
2022-08-26T20:26:30.121Z,22.00
2022-08-26T20:28:59.165Z,22.10
2022-08-26T20:31:29.071Z,22.00
2022-08-26T20:33:57.590Z,22.10
2022-08-26T20:36:28.120Z,22.00
2022-08-26T20:38:58.243Z,22.00
2022-08-26T20:41:28.273Z,22.10
2022-08-26T20:43:57.410Z,22.10
2022-08-26T20:46:27.358Z,22.10
2022-08-26T20:48:56.255Z,22.20
2022-08-26T20:51:27.165Z,22.20
2022-08-26T20:53:57.110Z,22.20
2022-08-26T20:56:25.653Z,22.20
2022-08-26T20:58:55.911Z,22.20
2022-08-26T21:01:27.269Z,22.10
2022-08-26T21:03:56.922Z,22.10
2022-08-26T21:06:25.184Z,22.10
2022-08-26T21:08:53.469Z,22.10
2022-08-26T21:11:23.302Z,22.10
2022-08-26T21:14:15.943Z,22.20
2022-08-26T21:16:41.238Z,22.20
2022-08-26T21:19:11.794Z,22.20
2022-08-26T21:21:40.757Z,22.10
2022-08-26T21:24:09.504Z,22.20
2022-08-26T21:26:39.376Z,22.20
2022-08-26T21:29:09.739Z,22.20
2022-08-26T21:31:43.522Z,22.20
2022-08-26T21:34:14.155Z,22.20
2022-08-26T21:36:42.338Z,22.30
2022-08-26T21:39:11.941Z,22.30
2022-08-26T21:41:42.580Z,22.30
2022-08-26T21:44:15.198Z,22.30
2022-08-26T21:46:44.685Z,22.30
2022-08-26T21:49:15.667Z,22.30
2022-08-26T21:51:47.443Z,22.30
2022-08-26T21:54:15.875Z,22.30
2022-08-26T21:56:47.801Z,22.30
2022-08-26T21:59:17.200Z,22.20
2022-08-26T22:01:48.516Z,22.20
2022-08-26T22:04:17.411Z,22.20
2022-08-26T22:06:47.964Z,22.20
2022-08-26T22:09:20.087Z,22.10
2022-08-26T22:11:50.279Z,22.10
2022-08-26T22:14:22.005Z,22.10
2022-08-26T22:16:51.115Z,22.10
2022-08-26T22:19:20.525Z,22.10
2022-08-26T22:21:53.222Z,22.10
2022-08-26T22:24:23.808Z,22.10
2022-08-26T22:26:54.096Z,22.10
2022-08-26T22:29:22.457Z,22.10
2022-08-26T22:31:50.561Z,22.20
2022-08-26T22:34:20.556Z,22.20
2022-08-26T22:36:50.559Z,22.20
2022-08-26T22:39:24.903Z,22.10
2022-08-26T22:41:56.933Z,22.10
2022-08-26T22:44:25.415Z,22.10
2022-08-26T22:46:55.543Z,22.10
2022-08-26T22:49:24.099Z,22.00
2022-08-26T22:51:52.341Z,22.00
2022-08-26T22:54:20.624Z,21.90
2022-08-26T22:56:49.007Z,21.90
2022-08-26T22:59:18.626Z,21.80
2022-08-26T23:01:47.450Z,21.80
2022-08-26T23:04:16.031Z,21.80
2022-08-26T23:06:47.585Z,21.80
2022-08-26T23:09:18.236Z,21.70
2022-08-26T23:11:48.490Z,21.70
2022-08-26T23:14:19.483Z,21.70
2022-08-26T23:16:48.542Z,21.70
2022-08-26T23:19:18.482Z,21.70
2022-08-26T23:21:47.155Z,21.70
2022-08-26T23:24:15.796Z,21.70
2022-08-26T23:26:45.509Z,21.70
2022-08-26T23:29:15.633Z,21.80
2022-08-26T23:31:45.607Z,21.80
2022-08-26T23:34:31.438Z,21.80
2022-08-26T23:37:00.933Z,21.80
2022-08-26T23:39:29.449Z,21.80
2022-08-26T23:41:58.133Z,21.80
2022-08-26T23:44:26.823Z,21.80
2022-08-26T23:46:56.753Z,21.70
2022-08-26T23:49:25.968Z,21.70
2022-08-26T23:52:12.016Z,21.70
2022-08-26T23:54:40.976Z,21.80
2022-08-26T23:57:09.532Z,21.70
2022-08-26T23:59:38.602Z,21.80
